createdAt,value
2018-07-26T00:03:33.466Z,72.900002
2018-07-26T00:08:35.909Z,72.599998
2018-07-26T00:13:38.138Z,73.099998
2018-07-26T00:18:40.525Z,72.699997
2018-07-26T00:23:42.793Z,73.300003
2018-07-26T00:28:45.063Z,74.099998
2018-07-26T00:33:47.269Z,73.800003
2018-07-26T00:38:49.592Z,74.400002
2018-07-26T00:43:51.869Z,76.300003
2018-07-26T00:48:54.136Z,76.800003
2018-07-26T00:53:56.411Z,76.199997
2018-07-26T00:58:58.762Z,76
2018-07-26T01:04:01.200Z,75.400002
2018-07-26T01:09:03.377Z,75.5
2018-07-26T01:14:05.687Z,74.5
2018-07-26T01:19:07.976Z,73.599998
2018-07-26T01:24:10.257Z,72.699997
2018-07-26T01:29:12.481Z,71.699997
2018-07-26T01:34:14.853Z,71.800003
2018-07-26T01:39:17.093Z,71.900002
2018-07-26T01:44:19.404Z,72.400002
2018-07-26T01:49:21.793Z,72.300003
2018-07-26T01:54:24.043Z,72.400002
2018-07-26T01:59:26.333Z,73.400002
2018-07-26T02:04:28.813Z,74.099998
2018-07-26T02:09:31.057Z,73.599998
2018-07-26T02:14:33.190Z,75
2018-07-26T02:19:35.613Z,75.300003
2018-07-26T02:24:37.893Z,74.5
2018-07-26T02:29:40.098Z,75.199997
2018-07-26T02:34:42.401Z,76.300003
2018-07-26T02:39:44.667Z,77.099998
2018-07-26T02:44:46.993Z,77.800003
2018-07-26T02:49:49.166Z,77.699997
2018-07-26T02:54:51.567Z,78.599998
2018-07-26T02:59:53.900Z,78.599998
2018-07-26T03:09:58.600Z,78.800003
2018-07-26T03:15:00.798Z,80.300003
2018-07-26T03:25:05.336Z,83.199997
2018-07-26T03:30:07.677Z,83.599998
2018-07-26T03:35:09.880Z,83.800003
2018-07-26T03:40:12.232Z,84.300003
2018-07-26T03:45:14.617Z,84.400002
2018-07-26T03:50:16.848Z,84.099998
2018-07-26T03:55:19.065Z,83.800003
2018-07-26T04:00:21.336Z,83.199997
2018-07-26T04:05:23.689Z,83.5
2018-07-26T04:10:26.032Z,82.699997
2018-07-26T04:15:28.274Z,82
2018-07-26T04:20:30.643Z,82
2018-07-26T04:25:33.101Z,81.199997
2018-07-26T04:30:35.147Z,81.699997
2018-07-26T04:35:37.414Z,82.199997
2018-07-26T04:40:39.819Z,81.900002
2018-07-26T04:45:42.060Z,82.5
2018-07-26T04:50:44.304Z,83
2018-07-26T04:55:46.663Z,82.5
2018-07-26T05:00:48.999Z,81.199997
2018-07-26T05:05:51.332Z,80.800003
2018-07-26T05:10:53.502Z,81.199997
2018-07-26T05:15:55.854Z,80.300003
2018-07-26T05:20:58.154Z,79.699997
2018-07-26T05:26:00.343Z,80
2018-07-26T05:31:02.693Z,78.199997
2018-07-26T05:36:05.043Z,78.300003
2018-07-26T05:41:07.404Z,77.300003
2018-07-26T05:46:09.637Z,76.800003
2018-07-26T05:51:11.885Z,75.599998
2018-07-26T05:56:14.152Z,75.400002
2018-07-26T06:01:19.450Z,75.699997
2018-07-26T06:06:21.797Z,75.800003
2018-07-26T06:11:23.996Z,74.400002
2018-07-26T06:16:26.419Z,75
2018-07-26T06:21:28.700Z,73.599998
2018-07-26T06:26:30.917Z,72.800003
2018-07-26T06:31:33.293Z,73.900002
2018-07-26T06:36:35.626Z,71
2018-07-26T06:41:37.767Z,71.300003
2018-07-26T06:46:40.114Z,69.400002
2018-07-26T06:51:42.435Z,67.5
2018-07-26T06:56:44.653Z,66.900002
2018-07-26T07:01:47.137Z,65.599998
2018-07-26T07:06:49.537Z,64.400002
2018-07-26T07:11:51.625Z,62.200001
2018-07-26T07:16:53.916Z,60.599998
2018-07-26T07:21:56.172Z,60.400002
2018-07-26T07:26:58.536Z,59
2018-07-26T07:32:00.747Z,60.200001
2018-07-26T07:37:03.220Z,56.599998
2018-07-26T07:42:05.399Z,56.299999
2018-07-26T07:47:07.642Z,55.299999
2018-07-26T07:52:09.937Z,55.099998
2018-07-26T07:57:12.192Z,52.900002
2018-07-26T08:02:14.496Z,51.200001
2018-07-26T08:07:16.808Z,52
2018-07-26T08:12:19.043Z,51.200001
2018-07-26T08:17:21.502Z,47.5
2018-07-26T08:22:23.701Z,48.900002
2018-07-26T08:27:26.001Z,46.299999
2018-07-26T08:32:28.269Z,43.900002
2018-07-26T08:37:30.604Z,45.799999
2018-07-26T08:42:32.887Z,43.799999
2018-07-26T08:47:35.169Z,43.099998
2018-07-26T08:52:37.423Z,42.299999
2018-07-26T08:57:39.749Z,39.099998
2018-07-26T09:02:42.102Z,37.799999
2018-07-26T09:07:44.426Z,39.900002
2018-07-26T09:12:46.554Z,39.099998
2018-07-26T09:17:48.923Z,39.099998
2018-07-26T09:22:51.234Z,37.400002
2018-07-26T09:27:53.572Z,39.200001
2018-07-26T09:32:55.802Z,36.5
2018-07-26T09:37:58.072Z,36.400002
2018-07-26T09:43:00.430Z,35.200001
2018-07-26T09:48:02.814Z,34.599998
2018-07-26T09:53:05.175Z,37
2018-07-26T09:58:07.345Z,33
2018-07-26T10:03:09.559Z,31.5
2018-07-26T10:08:11.807Z,31.4
2018-07-26T10:13:14.131Z,32.599998
2018-07-26T10:18:16.462Z,31.299999
2018-07-26T10:23:18.815Z,30.700001
2018-07-26T10:28:21.006Z,31.200001
2018-07-26T10:33:23.256Z,32
2018-07-26T10:38:25.664Z,30.1
2018-07-26T10:43:27.908Z,32.099998
2018-07-26T10:48:30.260Z,28.700001
2018-07-26T10:53:32.515Z,28.5
2018-07-26T10:58:34.933Z,28.4
2018-07-26T11:03:37.191Z,26.9
2018-07-26T11:08:39.501Z,29.4
2018-07-26T11:13:41.801Z,26.700001
2018-07-26T11:18:43.968Z,26.200001
2018-07-26T11:23:47.538Z,26.5
2018-07-26T11:28:48.612Z,25.4
2018-07-26T11:33:50.939Z,25.1
2018-07-26T11:38:53.240Z,24.799999
2018-07-26T11:43:55.471Z,27.200001
2018-07-26T11:48:57.743Z,25.9
2018-07-26T11:54:00.169Z,25.5
2018-07-26T11:59:02.360Z,24.9
2018-07-26T12:04:04.629Z,22.1
2018-07-26T12:09:06.971Z,22.299999
2018-07-26T12:14:09.220Z,26
2018-07-26T12:19:11.493Z,21.6
2018-07-26T12:24:13.731Z,21.1
2018-07-26T12:29:16.131Z,19.799999
2018-07-26T12:34:18.323Z,18.5
2018-07-26T12:39:20.685Z,18.9
2018-07-26T12:44:23.443Z,18.6
2018-07-26T12:49:25.302Z,18.6
2018-07-26T12:54:27.630Z,18.9
2018-07-26T12:59:29.968Z,18.299999
2018-07-26T13:04:32.376Z,19.5
2018-07-26T13:09:34.564Z,18.9
2018-07-26T13:14:36.836Z,19.299999
2018-07-26T13:19:39.075Z,18.9
2018-07-26T13:24:41.375Z,17.1
2018-07-26T13:29:43.665Z,17.799999
2018-07-26T13:34:45.876Z,16.6
2018-07-26T13:39:48.271Z,16.200001
2018-07-26T13:44:50.441Z,16.6
2018-07-26T13:49:52.883Z,18.299999
2018-07-26T13:54:55.204Z,18.1
2018-07-26T13:59:57.652Z,17.4
2018-07-26T14:04:59.748Z,16.5
2018-07-26T14:10:02.020Z,17.1
2018-07-26T14:15:04.401Z,16.1
2018-07-26T14:20:06.665Z,16.1
2018-07-26T14:25:08.889Z,16.799999
2018-07-26T14:30:11.391Z,16.299999
2018-07-26T14:40:17.387Z,16.1
2018-07-26T14:45:18.156Z,16.9
2018-07-26T14:50:20.401Z,17
2018-07-26T14:55:22.675Z,16.4
2018-07-26T15:00:24.941Z,17.799999
2018-07-26T15:05:27.194Z,17.4
2018-07-26T15:10:29.524Z,17.5
2018-07-26T15:15:31.887Z,16.799999
2018-07-26T15:20:34.225Z,18.200001
2018-07-26T15:25:36.542Z,21
2018-07-26T15:30:38.773Z,21.700001
2018-07-26T15:35:41.002Z,28.5
2018-07-26T15:40:43.435Z,26.6
2018-07-26T15:45:45.688Z,21.6
2018-07-26T15:50:47.965Z,21.5
2018-07-26T15:55:50.265Z,24.200001
2018-07-26T16:00:52.502Z,25.9
2018-07-26T16:05:54.856Z,28.200001
2018-07-26T16:10:58.247Z,28.6
2018-07-26T16:15:59.318Z,29
2018-07-26T16:21:01.698Z,29.299999
2018-07-26T16:26:03.956Z,31
2018-07-26T16:31:06.331Z,31.1
2018-07-26T16:36:08.645Z,31
2018-07-26T16:41:10.919Z,32.799999
2018-07-26T16:46:13.238Z,34.799999
2018-07-26T16:51:15.572Z,35.5
2018-07-26T16:56:17.747Z,35.799999
2018-07-26T17:01:20.113Z,35.900002
2018-07-26T17:06:22.217Z,35.700001
2018-07-26T17:11:24.619Z,40.5
2018-07-26T17:16:28.280Z,40.799999
2018-07-26T17:21:29.219Z,41.099998
2018-07-26T17:26:31.516Z,39.299999
2018-07-26T17:31:33.854Z,46.799999
2018-07-26T17:36:36.073Z,48.200001
2018-07-26T17:41:38.273Z,49.299999
2018-07-26T17:46:40.707Z,47.5
2018-07-26T17:51:44.186Z,47.200001
2018-07-26T17:56:45.341Z,44.400002
2018-07-26T18:06:49.956Z,48.099998
2018-07-26T18:11:52.112Z,47.700001
2018-07-26T18:16:54.438Z,45.599998
2018-07-26T18:21:56.811Z,45.599998
2018-07-26T18:26:58.987Z,45.799999
2018-07-26T18:32:01.334Z,44.799999
2018-07-26T18:37:03.580Z,47.900002
2018-07-26T18:42:05.971Z,46.200001
2018-07-26T18:47:09.735Z,46.5
2018-07-26T18:52:10.616Z,49.799999
2018-07-26T18:57:13.065Z,48.299999
2018-07-26T19:02:15.077Z,48.400002
2018-07-26T19:07:17.343Z,50.700001
2018-07-26T19:12:19.595Z,51.599998
2018-07-26T19:17:22.094Z,51.900002
2018-07-26T19:22:24.359Z,52.700001
2018-07-26T19:27:26.765Z,51.299999
2018-07-26T19:32:29.004Z,49.200001
2018-07-26T19:37:31.131Z,49.700001
2018-07-26T19:42:33.401Z,51
2018-07-26T19:47:35.751Z,48.200001
2018-07-26T19:52:38.041Z,47.299999
2018-07-26T19:57:40.608Z,47.799999
2018-07-26T20:02:42.870Z,48.5
2018-07-26T20:07:45.049Z,48.400002
2018-07-26T20:12:47.359Z,50.599998
2018-07-26T20:17:49.542Z,51.599998
2018-07-26T20:22:51.863Z,54.700001
2018-07-26T20:27:54.118Z,54.900002
2018-07-26T20:32:56.484Z,57.299999
2018-07-26T20:43:01.065Z,52.599998
2018-07-26T20:48:03.285Z,55.700001
2018-07-26T20:53:05.703Z,56.299999
2018-07-26T20:58:07.954Z,54.299999
2018-07-26T21:03:10.561Z,53.400002
2018-07-26T21:08:12.513Z,53.400002
2018-07-26T21:13:14.707Z,54.700001
2018-07-26T21:18:17.046Z,53.400002
2018-07-26T21:23:19.495Z,54.900002
2018-07-26T21:28:21.671Z,55.200001
2018-07-26T21:33:23.883Z,54.599998
2018-07-26T21:38:26.186Z,55.299999
2018-07-26T21:43:28.510Z,55.200001
2018-07-26T21:48:30.823Z,56.099998
2018-07-26T21:53:33.155Z,56
2018-07-26T21:58:35.495Z,57
2018-07-26T22:03:37.859Z,57.900002
2018-07-26T22:08:40.032Z,58.5
2018-07-26T22:13:42.275Z,57.700001
2018-07-26T22:18:45.596Z,57.400002
2018-07-26T22:23:47.108Z,57
2018-07-26T22:28:49.430Z,58
2018-07-26T22:38:53.700Z,59.900002
2018-07-26T22:43:56.101Z,60.900002
2018-07-26T22:48:58.262Z,62
2018-07-26T22:54:00.818Z,63.299999
2018-07-26T22:59:02.952Z,64.400002
2018-07-26T23:04:05.298Z,65
2018-07-26T23:09:07.651Z,64.599998
2018-07-26T23:14:10.369Z,65.599998
2018-07-26T23:19:12.022Z,67.099998
2018-07-26T23:24:14.495Z,68.300003
2018-07-26T23:29:16.716Z,69.400002
2018-07-26T23:34:19.083Z,71.300003
2018-07-26T23:39:21.326Z,70.599998
2018-07-26T23:44:23.588Z,71.199997
2018-07-26T23:49:25.883Z,71.300003
2018-07-26T23:54:28.221Z,72
2018-07-26T23:59:30.374Z,72.599998
